Time;durP1;ratioP1;P1;durP2;ratioP2;P2;SDS_P1;SDS_P2;PMS_P1;PMS_P2;Temp;Humidity;BMP_temperature;BMP_pressure;BME280_temperature;BME280_humidity;BME280_pressure;Samples;Min_cycle;Max_cycle;Signal;HPM_P1;HPM_P2
2023/05/15 00:02:13;;;;;;;0.20;0.20;;;;;;;20.11;52.22;101020.38;5122555;27;20046;-44
2023/05/15 00:04:38;;;;;;;0.20;0.20;;;;;;;20.12;52.27;101013.75;5134817;27;20352;-44
2023/05/15 00:07:04;;;;;;;0.20;0.20;;;;;;;20.11;52.33;101020.38;5133070;27;20817;-43
2023/05/15 00:09:30;;;;;;;0.20;0.20;;;;;;;20.12;52.06;101017.38;5133272;27;20122;-45
2023/05/15 00:11:56;;;;;;;0.20;0.20;;;;;;;20.12;52.08;101013.75;5119577;27;20056;-45
2023/05/15 00:14:21;;;;;;;0.20;0.20;;;;;;;20.12;52.30;101010.97;5134657;27;20479;-44
2023/05/15 00:16:47;;;;;;;0.22;0.22;;;;;;;20.12;51.85;101009.06;5134642;27;20043;-43
2023/05/15 00:19:13;;;;;;;0.20;0.20;;;;;;;20.11;52.20;101010.16;5135133;27;20467;-41
2023/05/15 00:21:39;;;;;;;0.20;0.20;;;;;;;20.11;52.22;101006.56;5117697;27;20051;-42
2023/05/15 00:24:05;;;;;;;0.20;0.20;;;;;;;20.11;52.04;101007.38;5135368;27;20049;-43
2023/05/15 00:26:30;;;;;;;0.20;0.20;;;;;;;20.11;51.96;101007.38;5132516;27;20047;-41
2023/05/15 00:28:56;;;;;;;0.20;0.20;;;;;;;20.11;52.10;101004.63;5114663;27;20051;-44
2023/05/15 00:31:22;;;;;;;0.20;0.20;;;;;;;20.10;52.17;100994.69;5132111;27;20460;-43
2023/05/15 00:33:48;;;;;;;0.20;0.20;;;;;;;20.12;52.10;101005.44;5135289;27;20099;-40
2023/05/15 00:36:13;;;;;;;0.20;0.20;;;;;;;20.11;52.05;100998.28;5134486;27;20064;-42
2023/05/15 00:38:39;;;;;;;0.20;0.20;;;;;;;20.11;52.14;100999.09;5134062;27;20047;-42
2023/05/15 00:41:06;;;;;;;0.20;0.20;;;;;;;20.11;51.94;101001.84;5135211;27;20397;-41
2023/05/15 00:43:31;;;;;;;0.20;0.20;;;;;;;20.11;52.03;100999.09;5116371;27;20039;-44
2023/05/15 00:45:58;;;;;;;0.20;0.20;;;;;;;20.10;51.74;101002.97;5133626;27;20070;-41
2023/05/15 00:48:24;;;;;;;0.20;0.20;;;;;;;20.11;52.37;101004.63;5134874;27;20050;-44
2023/05/15 00:50:51;;;;;;;0.20;0.20;;;;;;;20.11;52.12;100998.28;5121721;27;20472;-42
2023/05/15 00:53:17;;;;;;;0.20;0.20;;;;;;;20.11;52.13;101001.84;5129853;27;20046;-42
2023/05/15 00:55:45;;;;;;;0.20;0.20;;;;;;;20.11;52.21;101003.81;5134288;27;20398;-42
2023/05/15 00:58:13;;;;;;;0.20;0.20;;;;;;;20.11;52.05;100998.28;5134744;27;20070;-43
2023/05/15 01:00:39;;;;;;;0.20;0.20;;;;;;;20.10;52.14;100986.38;5121447;27;20054;-41
2023/05/15 01:03:05;;;;;;;0.20;0.20;;;;;;;20.11;52.06;100985.28;5126639;27;20074;-42
2023/05/15 01:05:31;;;;;;;0.20;0.20;;;;;;;20.11;52.01;100981.69;5133250;27;20042;-42
2023/05/15 01:08:06;;;;;;;0.20;0.20;;;;;;;20.10;52.07;100980.84;5134405;27;20131;-44
2023/05/15 01:10:33;;;;;;;0.20;0.20;;;;;;;20.11;52.31;100974.22;5122563;27;20054;-41
2023/05/15 01:13:01;;;;;;;0.20;0.20;;;;;;;20.12;52.31;100975.03;5125881;27;20050;-42
2023/05/15 01:15:27;;;;;;;0.20;0.20;;;;;;;20.11;51.82;100976.97;5133764;27;20070;-40
2023/05/15 01:17:53;;;;;;;0.20;0.20;;;;;;;20.11;51.93;100970.63;5113717;28;20051;-40
2023/05/15 01:20:19;;;;;;;0.22;0.22;;;;;;;20.11;52.26;100976.97;5114087;27;20403;-41
2023/05/15 01:22:51;;;;;;;0.20;0.20;;;;;;;20.11;51.89;100978.91;5114051;27;20124;-42
2023/05/15 01:25:52;;;;;;;0.20;0.20;;;;;;;20.11;52.08;100974.22;5113495;27;20047;-41
2023/05/15 01:28:24;;;;;;;0.20;0.20;;;;;;;20.11;51.98;100978.91;5126377;27;20886;-41
2023/05/15 01:30:51;;;;;;;0.20;0.20;;;;;;;20.11;52.00;100979.75;5120375;27;20498;-42
2023/05/15 01:33:21;;;;;;;0.20;0.20;;;;;;;20.11;51.98;100982.50;5113904;27;20085;-43
2023/05/15 01:35:54;;;;;;;0.20;0.20;;;;;;;20.11;52.09;100987.22;5111663;28;20640;-40
2023/05/15 01:38:42;;;;;;;0.20;0.20;;;;;;;20.11;52.20;100988.03;5128791;27;20071;-41
2023/05/15 01:41:15;;;;;;;0.20;0.20;;;;;;;20.11;52.01;100987.22;5112151;28;20067;-44
2023/05/15 01:43:43;;;;;;;0.20;0.20;;;;;;;20.11;52.10;100989.97;5112194;28;20055;-42
2023/05/15 01:46:14;;;;;;;0.20;0.20;;;;;;;20.11;51.92;100998.28;5112195;28;20118;-41
2023/05/15 01:48:42;;;;;;;0.20;0.20;;;;;;;20.11;51.99;101003.81;5128842;27;20058;-41
2023/05/15 01:51:09;;;;;;;0.20;0.20;;;;;;;20.11;52.26;100998.28;5112321;27;20090;-45
2023/05/15 01:53:36;;;;;;;0.20;0.20;;;;;;;20.11;52.04;100990.78;5112291;28;20350;-41
2023/05/15 01:56:05;;;;;;;0.28;0.28;;;;;;;20.12;52.07;100994.38;5111830;28;20046;-42
2023/05/15 01:58:32;;;;;;;0.20;0.20;;;;;;;20.12;52.14;100994.38;5113409;27;20058;-41
2023/05/15 02:00:58;;;;;;;0.20;0.20;;;;;;;20.11;52.36;100995.50;5099325;27;20458;-44
2023/05/15 02:03:24;;;;;;;0.20;0.20;;;;;;;20.11;51.99;100996.31;5107041;28;20039;-40
2023/05/15 02:05:52;;;;;;;0.20;0.20;;;;;;;20.11;52.27;101001.84;5113113;28;20051;-41
2023/05/15 02:08:19;;;;;;;0.20;0.20;;;;;;;20.11;52.17;100998.28;5111954;28;20048;-41
2023/05/15 02:10:45;;;;;;;0.20;0.20;;;;;;;20.12;52.18;100998.00;5099453;28;20078;-41
2023/05/15 02:13:12;;;;;;;0.20;0.20;;;;;;;20.12;52.27;100999.91;5104718;28;20072;-42
2023/05/15 02:15:37;;;;;;;0.20;0.20;;;;;;;20.12;51.89;101005.44;5113079;27;20452;-43
2023/05/15 02:18:04;;;;;;;0.30;0.30;;;;;;;20.12;51.80;101005.44;5112780;27;20051;-41
2023/05/15 02:20:29;;;;;;;0.20;0.20;;;;;;;20.11;52.21;101003.81;5114892;27;20047;-41
2023/05/15 02:22:55;;;;;;;0.20;0.20;;;;;;;20.11;52.03;101007.38;5116504;27;20292;-43
2023/05/15 02:25:28;;;;;;;0.20;0.20;;;;;;;20.12;52.08;101013.75;5116090;27;20300;-41
2023/05/15 02:27:56;;;;;;;0.20;0.20;;;;;;;20.10;51.99;101005.75;5096085;28;20040;-43
2023/05/15 02:30:39;;;;;;;0.20;0.20;;;;;;;20.11;52.01;101007.38;5104528;28;20040;-41
2023/05/15 02:33:20;;;;;;;0.20;0.20;;;;;;;20.11;52.18;101015.69;5116339;27;20047;-41
2023/05/15 02:35:51;;;;;;;0.20;0.20;;;;;;;20.12;52.15;101014.59;5115807;27;20222;-40
2023/05/15 02:38:23;;;;;;;0.20;0.20;;;;;;;20.11;51.99;101006.56;5116192;27;20449;-42
2023/05/15 02:40:49;;;;;;;0.20;0.20;;;;;;;20.12;52.10;101016.50;5115081;28;20074;-40
2023/05/15 02:43:17;;;;;;;0.20;0.20;;;;;;;20.11;51.89;101009.34;5116037;27;20054;-42
2023/05/15 02:45:44;;;;;;;0.20;0.20;;;;;;;20.11;52.09;101012.09;5114568;28;20051;-42
2023/05/15 02:48:11;;;;;;;0.20;0.20;;;;;;;20.12;52.03;101016.50;5125119;27;20081;-42
2023/05/15 02:50:36;;;;;;;0.30;0.30;;;;;;;20.11;52.01;101023.97;5116178;27;20089;-42
2023/05/15 02:53:03;;;;;;;0.20;0.20;;;;;;;20.11;52.10;101023.97;5115968;27;20043;-44
2023/05/15 02:55:29;;;;;;;0.20;0.20;;;;;;;20.11;52.17;101020.38;5114242;28;20051;-41
2023/05/15 02:57:55;;;;;;;0.20;0.20;;;;;;;20.11;51.95;101021.22;5114907;28;20095;-42
2023/05/15 03:00:21;;;;;;;0.30;0.30;;;;;;;20.11;52.00;101012.91;5106857;27;20047;-40
2023/05/15 03:02:46;;;;;;;0.20;0.20;;;;;;;20.12;51.90;101011.84;5102252;28;20050;-41
2023/05/15 03:05:12;;;;;;;0.20;0.20;;;;;;;20.12;52.17;101013.75;5115658;28;20518;-41
2023/05/15 03:07:40;;;;;;;0.20;0.20;;;;;;;20.11;51.95;101010.16;5116296;28;20051;-42
2023/05/15 03:10:06;;;;;;;0.20;0.20;;;;;;;20.11;51.90;101010.16;5109486;27;20043;-42
2023/05/15 03:12:32;;;;;;;0.20;0.20;;;;;;;20.12;52.26;101014.59;5100448;28;20051;-43
2023/05/15 03:14:57;;;;;;;0.20;0.20;;;;;;;20.12;52.25;101010.97;5115936;27;20047;-39
2023/05/15 03:17:23;;;;;;;0.20;0.20;;;;;;;20.12;52.09;101010.97;5115912;28;20039;-41
2023/05/15 03:19:49;;;;;;;0.20;0.20;;;;;;;20.12;52.13;101013.75;5110816;28;20051;-42
2023/05/15 03:22:15;;;;;;;0.20;0.20;;;;;;;20.11;52.25;101010.16;5097476;28;20519;-41
2023/05/15 03:24:41;;;;;;;0.20;0.20;;;;;;;20.12;52.03;101002.69;5115707;27;20185;-42
2023/05/15 03:27:06;;;;;;;0.20;0.20;;;;;;;20.11;52.10;100998.28;5130416;27;20536;-42
2023/05/15 03:29:32;;;;;;;0.20;0.20;;;;;;;20.11;52.20;101001.84;5127682;27;20057;-41
2023/05/15 03:31:58;;;;;;;0.20;0.20;;;;;;;20.12;52.00;101005.44;5115473;27;20389;-41
2023/05/15 03:34:23;;;;;;;0.20;0.20;;;;;;;20.11;52.14;101001.84;5115426;28;20043;-43
2023/05/15 03:36:49;;;;;;;0.20;0.20;;;;;;;20.12;52.17;100997.16;5114605;28;20039;-43
2023/05/15 03:39:15;;;;;;;0.20;0.20;;;;;;;20.11;51.99;100998.28;5116202;28;20047;-41
2023/05/15 03:41:40;;;;;;;0.20;0.20;;;;;;;20.11;51.96;101004.63;5115277;27;20077;-42
2023/05/15 03:44:06;;;;;;;0.20;0.20;;;;;;;20.11;52.14;101001.03;5113792;28;20063;-41
2023/05/15 03:46:31;;;;;;;0.30;0.30;;;;;;;20.11;52.15;100992.75;5114899;28;20972;-40
2023/05/15 03:48:57;;;;;;;0.20;0.20;;;;;;;20.11;52.10;100998.28;5115455;28;20053;-41
2023/05/15 03:51:23;;;;;;;0.20;0.20;;;;;;;20.11;52.31;100998.28;5114872;27;20051;-45
2023/05/15 03:53:49;;;;;;;0.20;0.20;;;;;;;20.11;52.30;100999.09;5114702;27;20043;-41
2023/05/15 03:56:15;;;;;;;0.20;0.20;;;;;;;20.12;51.98;100992.47;5114061;27;20483;-42
2023/05/15 03:58:40;;;;;;;0.20;0.20;;;;;;;20.12;52.04;100997.16;5114958;27;20062;-41
2023/05/15 04:01:06;;;;;;;0.20;0.20;;;;;;;20.11;52.13;100999.09;5114814;28;20050;-42
2023/05/15 04:03:32;;;;;;;0.20;0.20;;;;;;;20.12;51.99;100994.38;5114567;27;20047;-43
2023/05/15 04:05:58;;;;;;;0.20;0.20;;;;;;;20.11;52.21;100995.50;5112739;28;20043;-43
2023/05/15 04:08:24;;;;;;;0.20;0.20;;;;;;;20.11;52.05;100995.50;5114099;28;20092;-43
2023/05/15 04:10:49;;;;;;;0.20;0.20;;;;;;;20.11;52.09;101001.03;5101707;27;20198;-41
2023/05/15 04:13:15;;;;;;;0.20;0.20;;;;;;;20.10;51.65;101004.91;5102820;28;20047;-43
2023/05/15 04:15:41;;;;;;;0.20;0.20;;;;;;;20.10;51.95;101008.50;5113797;28;20080;-40
2023/05/15 04:18:06;;;;;;;0.20;0.20;;;;;;;20.11;52.10;100999.09;5114302;27;20054;-42
2023/05/15 04:20:32;;;;;;;0.20;0.20;;;;;;;20.12;51.86;101008.22;5114551;27;20047;-43
2023/05/15 04:22:58;;;;;;;0.20;0.20;;;;;;;20.11;51.94;101007.38;5114542;27;20101;-42
2023/05/15 04:25:24;;;;;;;0.20;0.20;;;;;;;20.12;51.84;100999.91;5129964;27;20515;-40
2023/05/15 04:27:50;;;;;;;0.20;0.20;;;;;;;20.11;52.16;100995.50;5134773;27;20535;-42
2023/05/15 04:30:16;;;;;;;0.10;0.10;;;;;;;20.12;52.12;101002.69;5118918;27;20625;-41
2023/05/15 04:32:41;;;;;;;0.20;0.20;;;;;;;20.12;52.24;100997.16;5097360;28;20040;-42
2023/05/15 04:35:10;;;;;;;0.20;0.20;;;;;;;20.12;51.96;100986.09;5114591;27;20051;-42
2023/05/15 04:37:37;;;;;;;0.20;0.20;;;;;;;20.12;52.17;100994.38;5112913;28;20189;-42
2023/05/15 04:40:03;;;;;;;0.20;0.20;;;;;;;20.12;52.29;100994.38;5108026;27;20109;-42
2023/05/15 04:42:29;;;;;;;0.20;0.20;;;;;;;20.11;51.84;101001.84;5092932;28;20456;-43
2023/05/15 04:44:54;;;;;;;0.20;0.20;;;;;;;20.12;52.22;101002.69;5097057;27;20511;-42
2023/05/15 04:47:20;;;;;;;0.20;0.20;;;;;;;20.12;52.09;101013.75;5097067;28;20043;-42
2023/05/15 04:49:46;;;;;;;0.20;0.20;;;;;;;20.11;52.23;101012.91;5096785;28;20067;-42
2023/05/15 04:52:12;;;;;;;0.20;0.20;;;;;;;20.12;52.03;101019.28;5101871;27;20047;-41
2023/05/15 04:54:38;;;;;;;0.20;0.20;;;;;;;20.12;52.23;101008.22;5110175;28;20091;-42
2023/05/15 04:57:05;;;;;;;0.20;0.20;;;;;;;20.12;52.21;101016.50;5110027;28;20047;-40
2023/05/15 04:59:30;;;;;;;0.20;0.20;;;;;;;20.12;52.35;101017.38;5095366;28;20086;-42
2023/05/15 05:01:56;;;;;;;0.20;0.20;;;;;;;20.12;52.15;101022.03;5108955;27;20047;-42
2023/05/15 05:04:22;;;;;;;0.20;0.20;;;;;;;20.11;52.07;101012.91;5099956;28;20053;-42
2023/05/15 05:06:48;;;;;;;0.20;0.20;;;;;;;20.12;52.07;101019.28;5107912;27;20035;-42
2023/05/15 05:09:13;;;;;;;0.20;0.20;;;;;;;20.12;51.94;101025.66;5104119;28;20877;-41
2023/05/15 05:11:43;;;;;;;0.20;0.20;;;;;;;20.12;52.20;101017.38;5107005;28;20076;-43
2023/05/15 05:14:09;;;;;;;0.20;0.20;;;;;;;20.13;52.39;101019.00;5107130;28;20411;-40
2023/05/15 05:16:35;;;;;;;0.20;0.20;;;;;;;20.13;52.25;101024.53;5107341;27;20039;-42
2023/05/15 05:19:01;;;;;;;0.30;0.30;;;;;;;20.14;52.05;101017.06;5092486;28;20497;-41
2023/05/15 05:21:27;;;;;;;0.20;0.20;;;;;;;20.15;52.30;101014.00;5093783;28;20542;-41
2023/05/15 05:23:52;;;;;;;0.20;0.20;;;;;;;20.13;52.22;101009.88;5095647;28;20054;-41
2023/05/15 05:26:18;;;;;;;0.20;0.20;;;;;;;20.13;52.13;101013.47;5104812;27;20066;-41
2023/05/15 05:28:44;;;;;;;0.20;0.20;;;;;;;20.14;51.90;101017.06;5101066;28;20047;-40
2023/05/15 05:31:09;;;;;;;0.20;0.20;;;;;;;20.13;51.78;101009.88;5102698;28;20035;-40
2023/05/15 05:33:35;;;;;;;0.20;0.20;;;;;;;20.13;52.19;101010.72;5094045;28;20055;-43
2023/05/15 05:36:01;;;;;;;0.20;0.20;;;;;;;20.13;51.94;101018.19;5101296;28;20484;-42
2023/05/15 05:38:26;;;;;;;0.20;0.20;;;;;;;20.13;51.98;101019.00;5092729;27;20065;-42
2023/05/15 05:40:52;;;;;;;0.20;0.20;;;;;;;20.12;52.08;101016.50;5100560;28;20901;-40
2023/05/15 05:43:19;;;;;;;0.20;0.20;;;;;;;20.13;51.79;101026.47;5098843;28;20043;-42
2023/05/15 05:45:45;;;;;;;0.20;0.20;;;;;;;20.11;52.15;101018.44;5092624;28;20043;-40
2023/05/15 05:48:12;;;;;;;0.20;0.20;;;;;;;20.12;52.25;101028.41;5096394;28;20676;-41
2023/05/15 05:50:38;;;;;;;0.20;0.20;;;;;;;20.13;52.19;101019.00;5092296;27;20053;-41
2023/05/15 05:53:04;;;;;;;0.20;0.20;;;;;;;20.14;51.90;101025.34;5093106;28;20503;-42
2023/05/15 05:55:29;;;;;;;0.20;0.20;;;;;;;20.16;52.26;101026.72;5099530;28;20039;-44
2023/05/15 05:57:55;;;;;;;0.20;0.20;;;;;;;20.16;52.22;101025.88;5094454;28;20246;-41
2023/05/15 06:00:23;;;;;;;0.20;0.20;;;;;;;20.14;52.12;101031.72;5093307;28;20556;-41
2023/05/15 06:02:51;;;;;;;0.20;0.20;;;;;;;20.14;51.94;101025.34;5088013;28;20283;-41
2023/05/15 06:05:17;;;;;;;0.20;0.20;;;;;;;20.14;51.70;101019.81;5085674;28;20092;-40
2023/05/15 06:07:43;;;;;;;0.45;0.30;;;;;;;20.13;51.67;101024.53;5083641;28;20044;-41
2023/05/15 06:10:09;;;;;;;0.20;0.20;;;;;;;20.14;51.53;101028.13;5095186;28;20040;-41
2023/05/15 06:12:35;;;;;;;0.30;0.30;;;;;;;20.15;51.61;101032.53;5087018;28;20127;-40
2023/05/15 06:15:01;;;;;;;0.20;0.20;;;;;;;20.15;51.48;101035.28;5088498;28;20043;-41
2023/05/15 06:17:26;;;;;;;0.20;0.20;;;;;;;20.12;51.78;101025.66;5097993;27;20223;-40
2023/05/15 06:19:53;;;;;;;0.20;0.20;;;;;;;20.13;51.78;101032.00;5099182;27;20100;-40
2023/05/15 06:22:18;;;;;;;0.20;0.20;;;;;;;20.13;51.56;101035.59;5093065;27;20518;-43
2023/05/15 06:24:44;;;;;;;0.20;0.20;;;;;;;20.12;51.27;101033.09;5097695;27;20631;-40
2023/05/15 06:27:10;;;;;;;0.20;0.20;;;;;;;20.13;51.01;101035.59;5097037;28;20054;-41
2023/05/15 06:29:36;;;;;;;0.20;0.20;;;;;;;20.14;50.65;101044.72;5108364;28;20569;-40
2023/05/15 06:32:01;;;;;;;0.20;0.20;;;;;;;20.13;51.56;101040.31;5091613;27;20051;-44
2023/05/15 06:34:27;;;;;;;0.20;0.20;;;;;;;20.15;51.34;101054.66;5094403;28;20055;-43
2023/05/15 06:36:53;;;;;;;0.20;0.20;;;;;;;20.14;51.75;101053.84;5099844;27;20278;-43
2023/05/15 06:39:18;;;;;;;0.20;0.20;;;;;;;20.14;51.50;101048.31;5091879;28;20055;-44
2023/05/15 06:41:44;;;;;;;0.20;0.20;;;;;;;20.13;51.81;101038.38;5097658;28;20310;-43
2023/05/15 06:44:10;;;;;;;0.20;0.20;;;;;;;20.12;51.87;101060.75;5094354;27;20842;-42
2023/05/15 06:46:35;;;;;;;0.20;0.20;;;;;;;20.16;51.65;101061.84;5086764;27;20514;-43
2023/05/15 06:49:01;;;;;;;0.20;0.20;;;;;;;20.16;51.93;101061.84;5084803;28;20046;-42
2023/05/15 06:51:27;;;;;;;0.20;0.20;;;;;;;20.17;51.75;101057.97;5080816;28;20076;-43
2023/05/15 06:53:53;;;;;;;0.20;0.20;;;;;;;20.16;51.77;101062.66;5085357;28;20044;-43
2023/05/15 06:56:19;;;;;;;0.20;0.20;;;;;;;20.14;51.95;101064.88;5077797;27;20058;-44
2023/05/15 06:58:44;;;;;;;0.20;0.20;;;;;;;20.17;51.90;101063.50;5089297;28;20284;-44
2023/05/15 07:01:10;;;;;;;0.20;0.20;;;;;;;20.14;51.87;101053.84;5072857;28;20129;-44
2023/05/15 07:03:36;;;;;;;0.20;0.20;;;;;;;20.16;51.82;101059.06;5077608;27;20047;-43
2023/05/15 07:06:01;;;;;;;0.20;0.20;;;;;;;20.15;52.01;101051.88;5053952;27;20043;-44
2023/05/15 07:08:27;;;;;;;0.20;0.20;;;;;;;20.15;51.65;101055.47;5063267;28;20051;-43
2023/05/15 07:10:53;;;;;;;0.40;0.40;;;;;;;20.14;52.00;101042.78;5075411;28;20578;-46
2023/05/15 07:13:19;;;;;;;0.20;0.20;;;;;;;20.16;52.05;101048.00;5086649;28;20047;-44
2023/05/15 07:15:45;;;;;;;0.20;0.20;;;;;;;20.14;51.90;101058.53;5083790;27;20047;-43
2023/05/15 07:18:11;;;;;;;0.20;0.20;;;;;;;20.15;52.02;101057.41;5089504;28;20040;-44
2023/05/15 07:20:37;;;;;;;0.20;0.20;;;;;;;20.16;51.60;101064.59;5090121;27;20554;-43
2023/05/15 07:23:04;;;;;;;0.20;0.20;;;;;;;20.19;51.99;101062.09;5086281;28;20176;-45
2023/05/15 07:25:30;;;;;;;0.20;0.20;;;;;;;20.16;51.91;101054.34;5092502;27;20069;-45
2023/05/15 07:27:56;;;;;;;0.20;0.20;;;;;;;20.17;51.99;101055.22;5098933;28;20150;-44
2023/05/15 07:30:21;;;;;;;0.20;0.20;;;;;;;20.16;51.86;101059.88;5094572;27;21287;-43
2023/05/15 07:32:47;;;;;;;0.20;0.20;;;;;;;20.16;51.91;101061.84;5101415;27;20135;-43
2023/05/15 07:35:13;;;;;;;0.20;0.20;;;;;;;20.16;51.99;101048.00;5089965;27;20043;-43
2023/05/15 07:37:39;;;;;;;0.20;0.20;;;;;;;20.17;51.90;101055.22;5097436;28;20138;-44
2023/05/15 07:40:06;;;;;;;0.20;0.20;;;;;;;20.18;52.09;101062.38;5099291;27;20051;-44
2023/05/15 07:42:32;;;;;;;0.20;0.20;;;;;;;20.17;51.78;101049.69;5093447;28;20108;-43
2023/05/15 07:44:57;;;;;;;0.20;0.20;;;;;;;20.17;52.20;101046.91;5095098;28;20151;-43
2023/05/15 07:47:23;;;;;;;0.20;0.20;;;;;;;20.16;51.95;101046.06;5084550;28;20039;-44
2023/05/15 07:49:49;;;;;;;0.20;0.20;;;;;;;20.15;52.08;101044.41;5092869;27;20074;-43
2023/05/15 07:52:15;;;;;;;0.30;0.30;;;;;;;20.16;51.90;101048.81;5091618;27;20132;-44
2023/05/15 07:54:41;;;;;;;0.20;0.20;;;;;;;20.15;52.03;101052.72;5081740;27;20055;-44
2023/05/15 07:57:07;;;;;;;0.20;0.20;;;;;;;20.17;52.36;101039.44;5091524;27;20451;-43
2023/05/15 07:59:34;;;;;;;0.20;0.20;;;;;;;20.18;52.06;101034.75;5089454;27;20138;-45
2023/05/15 08:01:59;;;;;;;0.20;0.20;;;;;;;20.17;52.13;101039.44;5084715;27;20070;-43
2023/05/15 08:04:25;;;;;;;0.20;0.20;;;;;;;20.18;52.37;101037.50;5086998;28;20067;-43
2023/05/15 08:06:51;;;;;;;0.30;0.30;;;;;;;20.17;52.13;101036.69;5077711;27;20686;-44
2023/05/15 08:09:17;;;;;;;0.20;0.20;;;;;;;20.18;51.84;101034.75;5079485;28;20043;-44
2023/05/15 08:11:42;;;;;;;0.28;0.28;;;;;;;20.17;52.00;101033.09;5079776;27;20342;-43
2023/05/15 08:14:08;;;;;;;0.20;0.20;;;;;;;20.20;51.92;101038.03;5083596;27;20175;-45
2023/05/15 08:16:36;;;;;;;;;;;;;;;20.18;51.80;101038.31;5087529;27;20052;-43
2023/05/15 08:19:04;;;;;;;0.20;0.20;;;;;;;20.18;52.26;101031.97;5082716;28;19931;-45
2023/05/15 08:21:31;;;;;;;0.20;0.20;;;;;;;20.17;51.78;101035.84;5085955;28;20467;-43
2023/05/15 08:23:58;;;;;;;0.20;0.20;;;;;;;20.20;52.00;101038.03;5096219;27;20044;-44
2023/05/15 08:26:23;;;;;;;0.22;0.22;;;;;;;20.18;52.02;101027.25;5091621;28;20419;-45
2023/05/15 08:28:49;;;;;;;0.20;0.20;;;;;;;20.18;51.92;101027.25;5085541;27;20596;-43
2023/05/15 08:31:15;;;;;;;0.28;0.28;;;;;;;20.17;51.93;101027.56;5084311;28;20568;-41
2023/05/15 08:33:41;;;;;;;0.20;0.20;;;;;;;20.18;51.73;101032.78;5071877;28;20403;-40
2023/05/15 08:36:07;;;;;;;0.20;0.20;;;;;;;20.19;51.72;101025.31;5066877;28;20190;-46
2023/05/15 08:38:32;;;;;;;0.20;0.20;;;;;;;20.18;51.81;101024.50;5070502;28;20070;-45
2023/05/15 08:41:05;;;;;;;0.20;0.20;;;;;;;20.18;51.85;101018.97;5071609;27;20038;-44
2023/05/15 08:43:32;;;;;;;0.20;0.20;;;;;;;20.19;51.98;101019.78;5078506;27;20069;-43
2023/05/15 08:45:58;;;;;;;0.20;0.20;;;;;;;20.18;51.82;101015.38;5081099;27;20078;-44
2023/05/15 08:48:26;;;;;;;0.20;0.20;;;;;;;20.20;51.93;101024.19;5080703;27;20101;-43
2023/05/15 08:50:52;;;;;;;0.20;0.20;;;;;;;20.20;52.08;101025.03;5088502;27;20047;-43
2023/05/15 08:53:19;;;;;;;0.30;0.30;;;;;;;20.21;51.90;101029.47;5084030;27;20066;-44
2023/05/15 08:55:44;;;;;;;0.20;0.20;;;;;;;20.21;52.04;101028.66;5089990;27;20471;-43
2023/05/15 08:58:10;;;;;;;0.20;0.20;;;;;;;20.20;52.07;101022.25;5092110;28;20115;-44
2023/05/15 09:00:36;;;;;;;0.20;0.20;;;;;;;20.20;52.23;101022.25;5099200;27;20295;-44
2023/05/15 09:03:02;;;;;;;0.20;0.20;;;;;;;20.22;52.57;101024.75;5094620;27;20044;-43
2023/05/15 09:05:28;;;;;;;0.20;0.20;;;;;;;20.22;52.43;101025.59;5096011;28;20043;-45
2023/05/15 09:07:55;;;;;;;0.20;0.20;;;;;;;20.22;52.38;101022.00;5105335;28;20486;-44
2023/05/15 09:10:21;;;;;;;0.20;0.20;;;;;;;20.24;52.21;101030.81;5094557;28;20110;-43
2023/05/15 09:12:49;;;;;;;0.20;0.20;;;;;;;20.24;52.38;101023.34;5091327;27;20039;-43
2023/05/15 09:15:16;;;;;;;0.20;0.20;;;;;;;20.24;52.06;101026.13;5097149;27;20039;-44
2023/05/15 09:17:43;;;;;;;0.20;0.20;;;;;;;20.25;52.33;101025.03;5085859;28;20411;-42
2023/05/15 09:20:30;;;;;;;0.20;0.20;;;;;;;20.26;52.21;101032.19;5086000;28;20555;-43
2023/05/15 09:22:57;;;;;;;0.20;0.20;;;;;;;20.29;52.09;101030.78;5102340;27;20043;-43
2023/05/15 09:25:43;;;;;;;0.20;0.20;;;;;;;20.27;52.26;101027.50;5093211;27;20046;-43
2023/05/15 09:28:23;;;;;;;0.40;0.40;;;;;;;20.29;52.13;101030.78;5094817;28;20073;-42
2023/05/15 09:30:49;;;;;;;0.20;0.20;;;;;;;20.27;52.37;101031.09;5096833;28;20038;-44
2023/05/15 09:33:16;;;;;;;0.20;0.20;;;;;;;20.30;52.14;101029.69;5090176;28;20046;-43
2023/05/15 09:35:41;;;;;;;0.20;0.20;;;;;;;20.30;52.32;101029.69;5082908;28;20070;-43
2023/05/15 09:38:09;;;;;;;0.22;0.22;;;;;;;20.29;51.26;101019.72;5082307;27;20178;-44
2023/05/15 09:40:34;;;;;;;0.10;0.10;;;;;;;20.30;51.10;101027.75;5072182;27;21038;-43
2023/05/15 09:43:00;;;;;;;0.20;0.20;;;;;;;20.30;51.20;101024.16;5073946;28;20104;-44
2023/05/15 09:45:28;;;;;;;0.20;0.20;;;;;;;20.30;51.22;101025.00;5083211;27;20043;-44
2023/05/15 09:47:56;;;;;;;0.20;0.20;;;;;;;20.30;51.06;101032.47;5089381;27;20040;-46
2023/05/15 09:50:23;;;;;;;0.20;0.20;;;;;;;20.29;51.15;101023.34;5085009;28;20523;-43
2023/05/15 09:52:50;;;;;;;0.20;0.20;;;;;;;20.29;50.73;101016.94;5088945;27;20050;-44
2023/05/15 09:55:18;;;;;;;0.20;0.20;;;;;;;20.28;51.32;101024.44;5090347;27;20073;-43
2023/05/15 09:58:03;;;;;;;0.20;0.20;;;;;;;20.18;49.07;101010.69;5092080;28;20123;-45
2023/05/15 10:00:29;;;;;;;0.20;0.20;;;;;;;20.26;49.18;101009.25;5078001;28;20046;-43
2023/05/15 10:03:00;;;;;;;0.20;0.20;;;;;;;20.30;49.69;101007.56;5083655;28;20039;-43
2023/05/15 10:05:26;;;;;;;0.20;0.20;;;;;;;20.28;49.61;101004.25;5088727;27;20142;-44
2023/05/15 10:08:08;;;;;;;0.20;0.20;;;;;;;20.27;49.57;101003.44;5090693;27;20043;-43
2023/05/15 10:10:33;;;;;;;0.20;0.20;;;;;;;20.30;49.90;101010.34;5089117;27;20076;-45
2023/05/15 10:13:03;;;;;;;0.20;0.20;;;;;;;20.31;49.78;101009.22;5090069;28;20487;-44
2023/05/15 10:15:29;;;;;;;0.20;0.20;;;;;;;20.31;49.84;101003.69;5090530;28;20040;-43
2023/05/15 10:17:55;;;;;;;0.20;0.20;;;;;;;20.32;49.68;101001.75;5095417;27;20108;-44
2023/05/15 10:20:23;;;;;;;0.30;0.30;;;;;;;20.32;50.04;101010.88;5086703;27;20081;-43
2023/05/15 10:22:51;;;;;;;0.30;0.30;;;;;;;20.30;49.64;100997.31;5091138;27;20415;-43
2023/05/15 10:25:39;;;;;;;0.28;0.28;;;;;;;20.31;48.90;100998.16;5091714;27;20255;-44
2023/05/15 10:28:08;;;;;;;0.30;0.30;;;;;;;20.21;47.14;100989.94;5093999;28;20464;-43
2023/05/15 10:30:34;;;;;;;0.20;0.20;;;;;;;20.27;47.21;100995.13;5091960;28;20507;-44
2023/05/15 10:33:00;;;;;;;0.20;0.20;;;;;;;20.32;47.92;100987.91;5090998;27;20039;-43
2023/05/15 10:35:26;;;;;;;0.20;0.20;;;;;;;20.33;48.38;100995.09;5081897;27;20085;-45
2023/05/15 10:37:52;;;;;;;0.20;0.20;;;;;;;20.32;48.46;100988.72;5094083;28;20157;-43
2023/05/15 10:40:19;;;;;;;0.20;0.20;;;;;;;20.34;48.61;100994.00;5091554;27;20506;-43
2023/05/15 10:42:46;;;;;;;0.20;0.20;;;;;;;20.35;48.68;100988.16;5087140;27;20131;-43
2023/05/15 10:45:12;;;;;;;0.20;0.20;;;;;;;20.35;48.64;100984.59;5083735;28;20058;-43
2023/05/15 10:47:40;;;;;;;0.20;0.20;;;;;;;20.34;49.02;100978.22;5079515;28;20559;-43
2023/05/15 10:50:06;;;;;;;0.20;0.20;;;;;;;20.36;49.12;100975.16;5089349;28;20271;-42
2023/05/15 10:52:32;;;;;;;0.20;0.20;;;;;;;20.37;49.09;100974.03;5088132;27;20438;-45
2023/05/15 10:54:58;;;;;;;0.20;0.20;;;;;;;20.35;48.36;100979.88;5087179;28;20075;-44
2023/05/15 10:57:24;;;;;;;0.20;0.20;;;;;;;20.35;48.70;100979.06;5093360;27;20086;-44
2023/05/15 10:59:50;;;;;;;0.20;0.20;;;;;;;20.36;48.11;100975.16;5086833;27;20404;-44
2023/05/15 11:02:29;;;;;;;0.20;0.20;;;;;;;20.35;48.35;100971.56;5098069;28;20047;-43
2023/05/15 11:04:56;;;;;;;0.20;0.20;;;;;;;20.37;48.87;100966.56;5090749;28;20077;-45
2023/05/15 11:07:23;;;;;;;0.20;0.20;;;;;;;20.37;48.94;100965.75;5095087;28;20067;-44
2023/05/15 11:09:49;;;;;;;0.20;0.20;;;;;;;20.37;48.81;100966.56;5093943;27;20054;-45
2023/05/15 11:12:15;;;;;;;0.20;0.20;;;;;;;20.37;49.32;100966.56;5093315;28;20075;-43
2023/05/15 11:14:43;;;;;;;0.20;0.20;;;;;;;20.38;49.30;100964.63;5093598;28;20610;-43
2023/05/15 11:17:11;;;;;;;0.40;0.40;;;;;;;20.37;49.23;100960.22;5093853;27;20062;-43
2023/05/15 11:19:39;;;;;;;0.20;0.20;;;;;;;20.37;49.36;100965.75;5095727;28;20495;-43
2023/05/15 11:25:11;;;;;;;0.20;0.20;;;;;;;20.40;49.31;100968.75;5153807;27;20119;-43
2023/05/15 11:27:40;;;;;;;0.20;0.20;;;;;;;20.41;48.31;100955.75;5116740;27;20058;-43